sensor_id;sensor_type;location;lat;lon;timestamp;temperature;humidity
65179;DHT22;51849;47.476;8.084;2022-11-20T00:01:18;4.70;89.70
65179;DHT22;51849;47.476;8.084;2022-11-20T00:03:46;4.70;89.90
65179;DHT22;51849;47.476;8.084;2022-11-20T00:06:14;4.80;89.80
65179;DHT22;51849;47.476;8.084;2022-11-20T00:08:41;4.80;89.60
65179;DHT22;51849;47.476;8.084;2022-11-20T00:11:08;4.80;89.60
65179;DHT22;51849;47.476;8.084;2022-11-20T00:13:38;4.70;89.70
65179;DHT22;51849;47.476;8.084;2022-11-20T00:16:07;4.70;89.60
65179;DHT22;51849;47.476;8.084;2022-11-20T00:18:38;4.70;89.70
65179;DHT22;51849;47.476;8.084;2022-11-20T00:21:05;4.70;89.90
65179;DHT22;51849;47.476;8.084;2022-11-20T00:23:32;4.80;89.70
65179;DHT22;51849;47.476;8.084;2022-11-20T00:26:06;4.80;89.70
65179;DHT22;51849;47.476;8.084;2022-11-20T00:28:33;4.90;89.50
65179;DHT22;51849;47.476;8.084;2022-11-20T00:31:05;4.90;89.20
65179;DHT22;51849;47.476;8.084;2022-11-20T00:33:33;4.90;89.20
65179;DHT22;51849;47.476;8.084;2022-11-20T00:36:20;4.90;89.20
65179;DHT22;51849;47.476;8.084;2022-11-20T00:38:56;4.90;89.10
65179;DHT22;51849;47.476;8.084;2022-11-20T00:41:26;5.00;88.90
65179;DHT22;51849;47.476;8.084;2022-11-20T00:43:53;5.00;88.80
65179;DHT22;51849;47.476;8.084;2022-11-20T00:46:21;5.00;88.60
65179;DHT22;51849;47.476;8.084;2022-11-20T00:48:48;5.00;88.60
65179;DHT22;51849;47.476;8.084;2022-11-20T00:51:14;5.00;88.50
65179;DHT22;51849;47.476;8.084;2022-11-20T00:53:41;5.00;88.40
65179;DHT22;51849;47.476;8.084;2022-11-20T00:56:09;4.90;87.70
65179;DHT22;51849;47.476;8.084;2022-11-20T00:58:37;4.80;87.60
65179;DHT22;51849;47.476;8.084;2022-11-20T01:03:44;4.70;87.60
65179;DHT22;51849;47.476;8.084;2022-11-20T01:06:18;4.50;87.20
65179;DHT22;51849;47.476;8.084;2022-11-20T01:08:45;4.50;87.50
65179;DHT22;51849;47.476;8.084;2022-11-20T01:11:13;4.40;87.40
65179;DHT22;51849;47.476;8.084;2022-11-20T01:13:42;4.40;87.10
65179;DHT22;51849;47.476;8.084;2022-11-20T01:18:52;4.30;86.70
65179;DHT22;51849;47.476;8.084;2022-11-20T01:21:22;4.20;86.80
65179;DHT22;51849;47.476;8.084;2022-11-20T01:23:52;4.20;86.30
65179;DHT22;51849;47.476;8.084;2022-11-20T01:26:22;4.10;85.90
65179;DHT22;51849;47.476;8.084;2022-11-20T01:28:55;4.00;85.90
65179;DHT22;51849;47.476;8.084;2022-11-20T01:31:22;3.90;86.30
65179;DHT22;51849;47.476;8.084;2022-11-20T01:33:52;3.80;86.20
65179;DHT22;51849;47.476;8.084;2022-11-20T01:36:22;3.70;86.30
65179;DHT22;51849;47.476;8.084;2022-11-20T01:38:52;3.70;86.50
65179;DHT22;51849;47.476;8.084;2022-11-20T01:41:22;3.70;86.50
65179;DHT22;51849;47.476;8.084;2022-11-20T01:44:09;3.70;86.20
65179;DHT22;51849;47.476;8.084;2022-11-20T01:46:38;3.70;85.90
65179;DHT22;51849;47.476;8.084;2022-11-20T01:49:10;3.60;86.30
65179;DHT22;51849;47.476;8.084;2022-11-20T01:51:54;3.60;86.30
65179;DHT22;51849;47.476;8.084;2022-11-20T01:54:38;3.60;86.20
65179;DHT22;51849;47.476;8.084;2022-11-20T01:57:22;3.60;86.20
65179;DHT22;51849;47.476;8.084;2022-11-20T02:00:00;3.70;85.80
65179;DHT22;51849;47.476;8.084;2022-11-20T02:02:32;3.60;85.60
65179;DHT22;51849;47.476;8.084;2022-11-20T02:04:59;3.50;85.80
65179;DHT22;51849;47.476;8.084;2022-11-20T02:07:32;3.50;85.90
65179;DHT22;51849;47.476;8.084;2022-11-20T02:09:57;3.60;86.20
65179;DHT22;51849;47.476;8.084;2022-11-20T02:12:25;3.60;86.10
65179;DHT22;51849;47.476;8.084;2022-11-20T02:15:09;3.70;86.10
65179;DHT22;51849;47.476;8.084;2022-11-20T02:17:35;3.60;85.90
65179;DHT22;51849;47.476;8.084;2022-11-20T02:20:03;3.50;86.00
65179;DHT22;51849;47.476;8.084;2022-11-20T02:22:37;3.50;86.10
65179;DHT22;51849;47.476;8.084;2022-11-20T02:25:12;3.60;86.20
65179;DHT22;51849;47.476;8.084;2022-11-20T02:27:40;3.60;86.10
65179;DHT22;51849;47.476;8.084;2022-11-20T02:30:08;3.70;86.00
65179;DHT22;51849;47.476;8.084;2022-11-20T02:32:40;3.70;85.90
65179;DHT22;51849;47.476;8.084;2022-11-20T02:37:48;3.70;86.00
65179;DHT22;51849;47.476;8.084;2022-11-20T02:40:19;3.70;85.40
65179;DHT22;51849;47.476;8.084;2022-11-20T02:42:44;3.80;85.50
65179;DHT22;51849;47.476;8.084;2022-11-20T02:45:10;3.90;85.80
65179;DHT22;51849;47.476;8.084;2022-11-20T02:47:39;3.90;85.80
65179;DHT22;51849;47.476;8.084;2022-11-20T02:50:05;3.90;85.50
65179;DHT22;51849;47.476;8.084;2022-11-20T02:52:31;3.90;85.20
65179;DHT22;51849;47.476;8.084;2022-11-20T02:54:57;4.00;84.90
65179;DHT22;51849;47.476;8.084;2022-11-20T02:57:25;3.90;84.90
65179;DHT22;51849;47.476;8.084;2022-11-20T02:59:53;3.90;85.20
65179;DHT22;51849;47.476;8.084;2022-11-20T03:02:19;3.90;85.50
65179;DHT22;51849;47.476;8.084;2022-11-20T03:04:48;3.90;85.60
65179;DHT22;51849;47.476;8.084;2022-11-20T03:07:17;3.90;85.30
65179;DHT22;51849;47.476;8.084;2022-11-20T03:09:45;3.90;85.00
65179;DHT22;51849;47.476;8.084;2022-11-20T03:12:10;3.90;84.80
65179;DHT22;51849;47.476;8.084;2022-11-20T03:14:38;3.90;85.00
65179;DHT22;51849;47.476;8.084;2022-11-20T03:17:06;3.90;85.20
65179;DHT22;51849;47.476;8.084;2022-11-20T03:19:34;3.90;85.30
65179;DHT22;51849;47.476;8.084;2022-11-20T03:22:00;3.90;85.40
65179;DHT22;51849;47.476;8.084;2022-11-20T03:24:30;3.90;85.40
65179;DHT22;51849;47.476;8.084;2022-11-20T03:26:56;3.90;85.30
65179;DHT22;51849;47.476;8.084;2022-11-20T03:29:22;3.90;85.30
65179;DHT22;51849;47.476;8.084;2022-11-20T03:31:47;3.90;85.30
65179;DHT22;51849;47.476;8.084;2022-11-20T03:34:15;3.90;85.40
65179;DHT22;51849;47.476;8.084;2022-11-20T03:36:41;3.90;85.40
65179;DHT22;51849;47.476;8.084;2022-11-20T03:39:10;3.90;85.40
65179;DHT22;51849;47.476;8.084;2022-11-20T03:41:36;3.90;85.20
65179;DHT22;51849;47.476;8.084;2022-11-20T03:44:04;3.80;85.00
65179;DHT22;51849;47.476;8.084;2022-11-20T03:46:33;3.80;84.90
65179;DHT22;51849;47.476;8.084;2022-11-20T03:49:01;3.80;84.50
65179;DHT22;51849;47.476;8.084;2022-11-20T03:51:31;3.90;84.60
65179;DHT22;51849;47.476;8.084;2022-11-20T03:53:59;3.90;84.40
65179;DHT22;51849;47.476;8.084;2022-11-20T03:56:27;3.80;84.30
65179;DHT22;51849;47.476;8.084;2022-11-20T03:59:00;3.80;84.00
65179;DHT22;51849;47.476;8.084;2022-11-20T04:01:26;3.80;84.20
65179;DHT22;51849;47.476;8.084;2022-11-20T04:03:57;3.80;84.20
65179;DHT22;51849;47.476;8.084;2022-11-20T04:06:23;3.80;84.20
65179;DHT22;51849;47.476;8.084;2022-11-20T04:08:51;3.80;84.40
65179;DHT22;51849;47.476;8.084;2022-11-20T04:11:25;3.80;84.50
65179;DHT22;51849;47.476;8.084;2022-11-20T04:14:02;3.90;84.50
65179;DHT22;51849;47.476;8.084;2022-11-20T04:16:30;3.80;84.50
65179;DHT22;51849;47.476;8.084;2022-11-20T04:18:58;3.80;84.50
65179;DHT22;51849;47.476;8.084;2022-11-20T04:21:25;3.80;84.60
65179;DHT22;51849;47.476;8.084;2022-11-20T04:23:51;3.80;84.60
65179;DHT22;51849;47.476;8.084;2022-11-20T04:26:19;3.80;84.80
65179;DHT22;51849;47.476;8.084;2022-11-20T04:28:47;3.80;85.10
65179;DHT22;51849;47.476;8.084;2022-11-20T04:31:14;3.70;85.10
65179;DHT22;51849;47.476;8.084;2022-11-20T04:33:41;3.70;85.20
65179;DHT22;51849;47.476;8.084;2022-11-20T04:38:42;3.80;85.60
65179;DHT22;51849;47.476;8.084;2022-11-20T04:41:19;3.70;85.60
65179;DHT22;51849;47.476;8.084;2022-11-20T04:46:17;3.70;85.80
65179;DHT22;51849;47.476;8.084;2022-11-20T04:48:44;3.80;85.80
65179;DHT22;51849;47.476;8.084;2022-11-20T04:51:11;3.80;85.60
65179;DHT22;51849;47.476;8.084;2022-11-20T04:53:36;3.80;85.40
65179;DHT22;51849;47.476;8.084;2022-11-20T04:56:06;3.80;85.30
65179;DHT22;51849;47.476;8.084;2022-11-20T04:58:36;3.80;85.10
65179;DHT22;51849;47.476;8.084;2022-11-20T05:01:03;3.80;85.10
65179;DHT22;51849;47.476;8.084;2022-11-20T05:03:36;3.80;85.10
65179;DHT22;51849;47.476;8.084;2022-11-20T05:06:02;3.80;85.10
65179;DHT22;51849;47.476;8.084;2022-11-20T05:08:30;3.80;85.20
65179;DHT22;51849;47.476;8.084;2022-11-20T05:13:28;3.80;85.40
65179;DHT22;51849;47.476;8.084;2022-11-20T05:15:54;3.80;85.40
65179;DHT22;51849;47.476;8.084;2022-11-20T05:18:19;3.90;85.70
65179;DHT22;51849;47.476;8.084;2022-11-20T05:20:45;3.90;85.70
65179;DHT22;51849;47.476;8.084;2022-11-20T05:23:11;3.90;85.60
65179;DHT22;51849;47.476;8.084;2022-11-20T05:25:39;4.00;85.40
65179;DHT22;51849;47.476;8.084;2022-11-20T05:28:04;4.10;85.20
65179;DHT22;51849;47.476;8.084;2022-11-20T05:30:30;4.10;85.60
65179;DHT22;51849;47.476;8.084;2022-11-20T05:32:55;4.10;86.30
65179;DHT22;51849;47.476;8.084;2022-11-20T05:35:21;4.10;86.30
65179;DHT22;51849;47.476;8.084;2022-11-20T05:37:49;4.20;86.30
65179;DHT22;51849;47.476;8.084;2022-11-20T05:40:17;4.10;86.60
65179;DHT22;51849;47.476;8.084;2022-11-20T05:42:45;4.00;86.20
65179;DHT22;51849;47.476;8.084;2022-11-20T05:45:11;4.00;86.30
65179;DHT22;51849;47.476;8.084;2022-11-20T05:47:36;4.00;85.40
65179;DHT22;51849;47.476;8.084;2022-11-20T05:50:04;4.00;85.60
65179;DHT22;51849;47.476;8.084;2022-11-20T05:52:30;4.10;85.80
65179;DHT22;51849;47.476;8.084;2022-11-20T05:54:58;4.10;85.80
65179;DHT22;51849;47.476;8.084;2022-11-20T05:57:24;4.10;85.80
65179;DHT22;51849;47.476;8.084;2022-11-20T05:59:54;4.20;85.40
65179;DHT22;51849;47.476;8.084;2022-11-20T06:02:22;4.20;85.40
65179;DHT22;51849;47.476;8.084;2022-11-20T06:04:48;4.20;85.30
65179;DHT22;51849;47.476;8.084;2022-11-20T06:07:14;4.20;85.30
65179;DHT22;51849;47.476;8.084;2022-11-20T06:09:44;4.20;85.60
65179;DHT22;51849;47.476;8.084;2022-11-20T06:12:10;4.20;85.80
65179;DHT22;51849;47.476;8.084;2022-11-20T06:14:35;4.30;86.10
65179;DHT22;51849;47.476;8.084;2022-11-20T06:17:01;4.30;85.60
65179;DHT22;51849;47.476;8.084;2022-11-20T06:19:26;4.30;85.40
65179;DHT22;51849;47.476;8.084;2022-11-20T06:21:52;4.30;85.50
65179;DHT22;51849;47.476;8.084;2022-11-20T06:24:20;4.30;85.60
65179;DHT22;51849;47.476;8.084;2022-11-20T06:26:45;4.30;86.10
65179;DHT22;51849;47.476;8.084;2022-11-20T06:29:11;4.30;86.50
65179;DHT22;51849;47.476;8.084;2022-11-20T06:31:39;4.30;86.80
65179;DHT22;51849;47.476;8.084;2022-11-20T06:34:05;4.30;87.30
65179;DHT22;51849;47.476;8.084;2022-11-20T06:36:33;4.40;87.50
65179;DHT22;51849;47.476;8.084;2022-11-20T06:38:59;4.40;87.50
65179;DHT22;51849;47.476;8.084;2022-11-20T06:41:25;4.30;87.50
65179;DHT22;51849;47.476;8.084;2022-11-20T06:43:51;4.40;87.50
65179;DHT22;51849;47.476;8.084;2022-11-20T06:46:17;4.40;87.60
65179;DHT22;51849;47.476;8.084;2022-11-20T06:48:44;4.50;87.50
65179;DHT22;51849;47.476;8.084;2022-11-20T06:51:10;4.50;87.30
65179;DHT22;51849;47.476;8.084;2022-11-20T06:53:38;4.50;87.20
65179;DHT22;51849;47.476;8.084;2022-11-20T06:56:04;4.50;87.10
65179;DHT22;51849;47.476;8.084;2022-11-20T06:58:31;4.60;87.00
65179;DHT22;51849;47.476;8.084;2022-11-20T07:01:00;4.60;86.70
65179;DHT22;51849;47.476;8.084;2022-11-20T07:03:30;4.60;86.10
65179;DHT22;51849;47.476;8.084;2022-11-20T07:05:56;4.70;85.90
65179;DHT22;51849;47.476;8.084;2022-11-20T07:08:25;4.70;85.30
65179;DHT22;51849;47.476;8.084;2022-11-20T07:10:51;4.80;85.00
65179;DHT22;51849;47.476;8.084;2022-11-20T07:13:22;4.80;84.90
65179;DHT22;51849;47.476;8.084;2022-11-20T07:15:50;4.90;84.30
65179;DHT22;51849;47.476;8.084;2022-11-20T07:18:15;4.80;84.50
65179;DHT22;51849;47.476;8.084;2022-11-20T07:20:46;4.90;83.40
65179;DHT22;51849;47.476;8.084;2022-11-20T07:23:12;4.90;83.10
65179;DHT22;51849;47.476;8.084;2022-11-20T07:25:40;4.90;83.60
65179;DHT22;51849;47.476;8.084;2022-11-20T07:28:05;4.90;84.00
65179;DHT22;51849;47.476;8.084;2022-11-20T07:30:31;5.00;83.20
65179;DHT22;51849;47.476;8.084;2022-11-20T07:32:56;5.00;83.30
65179;DHT22;51849;47.476;8.084;2022-11-20T07:35:23;5.00;83.50
65179;DHT22;51849;47.476;8.084;2022-11-20T07:37:49;5.10;83.10
65179;DHT22;51849;47.476;8.084;2022-11-20T07:40:15;5.10;82.70
65179;DHT22;51849;47.476;8.084;2022-11-20T07:42:53;5.20;82.40
65179;DHT22;51849;47.476;8.084;2022-11-20T07:45:23;5.30;82.70
65179;DHT22;51849;47.476;8.084;2022-11-20T07:47:52;5.30;82.70
65179;DHT22;51849;47.476;8.084;2022-11-20T07:50:18;5.30;82.50
65179;DHT22;51849;47.476;8.084;2022-11-20T07:52:44;5.30;81.10
65179;DHT22;51849;47.476;8.084;2022-11-20T07:55:12;5.40;81.00
65179;DHT22;51849;47.476;8.084;2022-11-20T07:57:38;5.50;81.10
65179;DHT22;51849;47.476;8.084;2022-11-20T08:00:04;5.50;80.30
65179;DHT22;51849;47.476;8.084;2022-11-20T08:02:36;5.60;79.80
65179;DHT22;51849;47.476;8.084;2022-11-20T08:05:04;5.60;79.60
65179;DHT22;51849;47.476;8.084;2022-11-20T08:07:39;5.70;79.00
65179;DHT22;51849;47.476;8.084;2022-11-20T08:10:06;5.70;78.80
65179;DHT22;51849;47.476;8.084;2022-11-20T08:12:33;5.70;78.30
65179;DHT22;51849;47.476;8.084;2022-11-20T08:15:37;5.70;78.10
65179;DHT22;51849;47.476;8.084;2022-11-20T08:18:10;5.70;78.30
65179;DHT22;51849;47.476;8.084;2022-11-20T08:20:37;5.70;78.40
65179;DHT22;51849;47.476;8.084;2022-11-20T08:23:04;5.70;78.10
65179;DHT22;51849;47.476;8.084;2022-11-20T08:25:31;5.70;78.10
65179;DHT22;51849;47.476;8.084;2022-11-20T08:27:59;5.60;78.60
65179;DHT22;51849;47.476;8.084;2022-11-20T08:30:25;5.70;78.40
65179;DHT22;51849;47.476;8.084;2022-11-20T08:32:51;5.70;78.30
65179;DHT22;51849;47.476;8.084;2022-11-20T08:35:20;5.70;78.60
65179;DHT22;51849;47.476;8.084;2022-11-20T08:37:46;5.70;78.50
65179;DHT22;51849;47.476;8.084;2022-11-20T08:40:13;5.80;78.60
65179;DHT22;51849;47.476;8.084;2022-11-20T08:42:48;5.80;78.30
65179;DHT22;51849;47.476;8.084;2022-11-20T08:45:15;5.90;77.60
65179;DHT22;51849;47.476;8.084;2022-11-20T08:47:41;5.90;77.70
65179;DHT22;51849;47.476;8.084;2022-11-20T08:50:10;6.00;78.60
65179;DHT22;51849;47.476;8.084;2022-11-20T08:52:42;6.00;77.20
65179;DHT22;51849;47.476;8.084;2022-11-20T08:55:09;6.00;77.30
65179;DHT22;51849;47.476;8.084;2022-11-20T08:57:35;6.00;78.10
65179;DHT22;51849;47.476;8.084;2022-11-20T09:00:03;5.90;77.00
65179;DHT22;51849;47.476;8.084;2022-11-20T09:02:32;6.00;77.20
65179;DHT22;51849;47.476;8.084;2022-11-20T09:05:01;5.90;77.70
65179;DHT22;51849;47.476;8.084;2022-11-20T09:07:27;6.00;77.50
65179;DHT22;51849;47.476;8.084;2022-11-20T09:09:53;5.90;77.70
65179;DHT22;51849;47.476;8.084;2022-11-20T09:12:24;5.90;78.20
65179;DHT22;51849;47.476;8.084;2022-11-20T09:14:49;6.00;77.50
65179;DHT22;51849;47.476;8.084;2022-11-20T09:17:15;6.00;78.10
65179;DHT22;51849;47.476;8.084;2022-11-20T09:19:41;6.00;77.90
65179;DHT22;51849;47.476;8.084;2022-11-20T09:22:11;6.00;77.20
65179;DHT22;51849;47.476;8.084;2022-11-20T09:24:37;6.00;77.80
65179;DHT22;51849;47.476;8.084;2022-11-20T09:27:05;6.00;77.40
65179;DHT22;51849;47.476;8.084;2022-11-20T09:29:30;6.10;77.60
65179;DHT22;51849;47.476;8.084;2022-11-20T09:31:58;6.10;77.50
65179;DHT22;51849;47.476;8.084;2022-11-20T09:34:24;6.10;77.50
65179;DHT22;51849;47.476;8.084;2022-11-20T09:36:50;6.10;77.60
65179;DHT22;51849;47.476;8.084;2022-11-20T09:39:15;6.10;77.50
65179;DHT22;51849;47.476;8.084;2022-11-20T09:49:23;6.30;77.70
65179;DHT22;51849;47.476;8.084;2022-11-20T09:54:22;6.40;78.00
65179;DHT22;51849;47.476;8.084;2022-11-20T09:57:29;6.50;78.00
65179;DHT22;51849;47.476;8.084;2022-11-20T09:59:52;6.50;78.30
65179;DHT22;51849;47.476;8.084;2022-11-20T10:02:35;6.70;78.30
65179;DHT22;51849;47.476;8.084;2022-11-20T10:11:23;6.80;77.10
65179;DHT22;51849;47.476;8.084;2022-11-20T10:17:16;7.00;75.40
65179;DHT22;51849;47.476;8.084;2022-11-20T10:22:35;7.10;73.90
65179;DHT22;51849;47.476;8.084;2022-11-20T10:25:30;7.20;73.50
65179;DHT22;51849;47.476;8.084;2022-11-20T10:30:45;7.40;71.90
65179;DHT22;51849;47.476;8.084;2022-11-20T10:33:24;7.50;73.00
65179;DHT22;51849;47.476;8.084;2022-11-20T10:35:54;7.60;71.20
65179;DHT22;51849;47.476;8.084;2022-11-20T10:38:31;7.70;69.80
65179;DHT22;51849;47.476;8.084;2022-11-20T10:41:03;7.80;69.30
65179;DHT22;51849;47.476;8.084;2022-11-20T10:43:50;7.80;69.50
65179;DHT22;51849;47.476;8.084;2022-11-20T10:46:23;7.70;68.70
65179;DHT22;51849;47.476;8.084;2022-11-20T10:48:50;7.70;69.40
65179;DHT22;51849;47.476;8.084;2022-11-20T10:51:42;7.80;69.10
65179;DHT22;51849;47.476;8.084;2022-11-20T10:54:24;7.80;69.60
65179;DHT22;51849;47.476;8.084;2022-11-20T11:00:10;7.80;71.40
65179;DHT22;51849;47.476;8.084;2022-11-20T11:02:39;7.80;71.30
65179;DHT22;51849;47.476;8.084;2022-11-20T11:05:10;7.90;71.40
65179;DHT22;51849;47.476;8.084;2022-11-20T11:07:42;7.80;70.80
65179;DHT22;51849;47.476;8.084;2022-11-20T11:12:45;7.80;72.80
65179;DHT22;51849;47.476;8.084;2022-11-20T11:15:58;7.80;73.20
65179;DHT22;51849;47.476;8.084;2022-11-20T11:18:02;7.80;73.50
65179;DHT22;51849;47.476;8.084;2022-11-20T11:20:28;7.80;72.50
65179;DHT22;51849;47.476;8.084;2022-11-20T11:22:59;7.80;72.60
65179;DHT22;51849;47.476;8.084;2022-11-20T11:25:33;7.80;72.20
65179;DHT22;51849;47.476;8.084;2022-11-20T11:28:02;7.80;72.70
65179;DHT22;51849;47.476;8.084;2022-11-20T11:30:29;7.80;73.60
65179;DHT22;51849;47.476;8.084;2022-11-20T11:33:06;7.70;72.60
65179;DHT22;51849;47.476;8.084;2022-11-20T11:38:48;7.70;74.30
65179;DHT22;51849;47.476;8.084;2022-11-20T11:41:22;7.70;73.50
65179;DHT22;51849;47.476;8.084;2022-11-20T11:43:53;7.60;74.30
65179;DHT22;51849;47.476;8.084;2022-11-20T11:46:54;7.60;74.30
65179;DHT22;51849;47.476;8.084;2022-11-20T11:49:21;7.60;74.00
65179;DHT22;51849;47.476;8.084;2022-11-20T11:51:55;7.60;74.80
65179;DHT22;51849;47.476;8.084;2022-11-20T11:54:30;7.50;74.00
65179;DHT22;51849;47.476;8.084;2022-11-20T11:57:00;7.50;75.20
65179;DHT22;51849;47.476;8.084;2022-11-20T11:59:54;7.40;75.30
65179;DHT22;51849;47.476;8.084;2022-11-20T12:02:45;7.40;75.20
65179;DHT22;51849;47.476;8.084;2022-11-20T12:17:09;7.40;76.10
65179;DHT22;51849;47.476;8.084;2022-11-20T12:19:39;7.40;75.20
65179;DHT22;51849;47.476;8.084;2022-11-20T12:30:11;7.50;75.20
65179;DHT22;51849;47.476;8.084;2022-11-20T12:38:33;7.60;75.80
65179;DHT22;51849;47.476;8.084;2022-11-20T12:46:57;7.60;75.50
65179;DHT22;51849;47.476;8.084;2022-11-20T12:52:42;7.70;74.70
65179;DHT22;51849;47.476;8.084;2022-11-20T12:55:13;7.80;74.10
65179;DHT22;51849;47.476;8.084;2022-11-20T13:00:18;7.80;72.90
65179;DHT22;51849;47.476;8.084;2022-11-20T13:06:02;7.80;72.70
65179;DHT22;51849;47.476;8.084;2022-11-20T13:08:36;7.80;73.10
65179;DHT22;51849;47.476;8.084;2022-11-20T13:11:12;7.90;73.10
65179;DHT22;51849;47.476;8.084;2022-11-20T13:13:55;7.90;72.50
65179;DHT22;51849;47.476;8.084;2022-11-20T13:19:16;8.00;71.70
65179;DHT22;51849;47.476;8.084;2022-11-20T13:21:44;8.00;71.50
65179;DHT22;51849;47.476;8.084;2022-11-20T13:29:40;8.20;70.70
65179;DHT22;51849;47.476;8.084;2022-11-20T13:34:55;8.30;71.90
65179;DHT22;51849;47.476;8.084;2022-11-20T13:37:25;8.30;71.40
65179;DHT22;51849;47.476;8.084;2022-11-20T13:39:52;8.30;72.20
65179;DHT22;51849;47.476;8.084;2022-11-20T13:42:23;8.30;72.00
65179;DHT22;51849;47.476;8.084;2022-11-20T13:44:54;8.30;71.80
65179;DHT22;51849;47.476;8.084;2022-11-20T13:47:21;8.30;72.30
65179;DHT22;51849;47.476;8.084;2022-11-20T13:49:49;8.30;71.40
65179;DHT22;51849;47.476;8.084;2022-11-20T13:57:50;8.30;69.20
65179;DHT22;51849;47.476;8.084;2022-11-20T14:00:27;8.30;69.50
65179;DHT22;51849;47.476;8.084;2022-11-20T14:05:32;8.20;71.10
65179;DHT22;51849;47.476;8.084;2022-11-20T14:08:02;8.20;70.90
65179;DHT22;51849;47.476;8.084;2022-11-20T14:10:30;8.10;71.00
65179;DHT22;51849;47.476;8.084;2022-11-20T14:13:09;8.10;71.20
65179;DHT22;51849;47.476;8.084;2022-11-20T14:15:43;8.00;71.20
65179;DHT22;51849;47.476;8.084;2022-11-20T14:18:13;8.00;70.00
65179;DHT22;51849;47.476;8.084;2022-11-20T14:20:41;7.90;69.60
65179;DHT22;51849;47.476;8.084;2022-11-20T14:23:10;7.80;69.80
65179;DHT22;51849;47.476;8.084;2022-11-20T14:25:36;7.80;70.30
65179;DHT22;51849;47.476;8.084;2022-11-20T14:28:04;7.80;70.10
65179;DHT22;51849;47.476;8.084;2022-11-20T14:33:09;7.80;69.90
65179;DHT22;51849;47.476;8.084;2022-11-20T14:35:40;7.80;70.30
65179;DHT22;51849;47.476;8.084;2022-11-20T14:38:11;7.80;70.40
65179;DHT22;51849;47.476;8.084;2022-11-20T14:40:43;7.80;70.50
65179;DHT22;51849;47.476;8.084;2022-11-20T14:45:45;7.60;70.70
65179;DHT22;51849;47.476;8.084;2022-11-20T14:48:14;7.50;71.20
65179;DHT22;51849;47.476;8.084;2022-11-20T14:50:43;7.40;71.70
65179;DHT22;51849;47.476;8.084;2022-11-20T14:53:11;7.50;72.00
65179;DHT22;51849;47.476;8.084;2022-11-20T14:55:59;7.40;72.00
65179;DHT22;51849;47.476;8.084;2022-11-20T14:58:28;7.40;72.20
65179;DHT22;51849;47.476;8.084;2022-11-20T15:01:04;7.40;72.40
65179;DHT22;51849;47.476;8.084;2022-11-20T15:03:35;7.40;72.80
65179;DHT22;51849;47.476;8.084;2022-11-20T15:06:10;7.40;73.50
65179;DHT22;51849;47.476;8.084;2022-11-20T15:08:39;7.40;74.00
65179;DHT22;51849;47.476;8.084;2022-11-20T15:11:30;7.40;74.20
65179;DHT22;51849;47.476;8.084;2022-11-20T15:14:00;7.30;74.00
65179;DHT22;51849;47.476;8.084;2022-11-20T15:16:28;7.20;74.00
65179;DHT22;51849;47.476;8.084;2022-11-20T15:18:56;7.20;74.10
65179;DHT22;51849;47.476;8.084;2022-11-20T15:21:22;7.20;74.00
65179;DHT22;51849;47.476;8.084;2022-11-20T15:23:50;7.10;74.30
65179;DHT22;51849;47.476;8.084;2022-11-20T15:26:26;7.00;74.30
65179;DHT22;51849;47.476;8.084;2022-11-20T15:28:53;6.90;75.00
65179;DHT22;51849;47.476;8.084;2022-11-20T15:31:20;6.70;75.80
65179;DHT22;51849;47.476;8.084;2022-11-20T15:33:47;6.60;76.10
65179;DHT22;51849;47.476;8.084;2022-11-20T15:36:15;6.60;76.30
65179;DHT22;51849;47.476;8.084;2022-11-20T15:38:41;6.50;76.70
65179;DHT22;51849;47.476;8.084;2022-11-20T15:41:07;6.50;76.90
65179;DHT22;51849;47.476;8.084;2022-11-20T15:43:33;6.50;77.20
65179;DHT22;51849;47.476;8.084;2022-11-20T15:46:03;6.40;77.10
65179;DHT22;51849;47.476;8.084;2022-11-20T15:48:37;6.20;77.90
65179;DHT22;51849;47.476;8.084;2022-11-20T15:53:36;6.10;78.70
65179;DHT22;51849;47.476;8.084;2022-11-20T15:56:05;6.00;79.10
65179;DHT22;51849;47.476;8.084;2022-11-20T15:58:35;6.00;79.10
65179;DHT22;51849;47.476;8.084;2022-11-20T16:01:01;6.00;79.40
65179;DHT22;51849;47.476;8.084;2022-11-20T16:03:26;5.90;79.70
65179;DHT22;51849;47.476;8.084;2022-11-20T16:05:55;5.80;80.10
65179;DHT22;51849;47.476;8.084;2022-11-20T16:08:23;5.90;80.00
65179;DHT22;51849;47.476;8.084;2022-11-20T16:10:48;5.80;79.90
65179;DHT22;51849;47.476;8.084;2022-11-20T16:13:19;5.80;80.10
65179;DHT22;51849;47.476;8.084;2022-11-20T16:16:06;5.80;80.20
65179;DHT22;51849;47.476;8.084;2022-11-20T16:18:39;5.80;80.20
65179;DHT22;51849;47.476;8.084;2022-11-20T16:21:10;5.80;80.30
65179;DHT22;51849;47.476;8.084;2022-11-20T16:23:37;5.80;80.50
65179;DHT22;51849;47.476;8.084;2022-11-20T16:26:08;5.80;80.30
65179;DHT22;51849;47.476;8.084;2022-11-20T16:28:35;5.80;80.30
65179;DHT22;51849;47.476;8.084;2022-11-20T16:31:12;5.70;80.30
65179;DHT22;51849;47.476;8.084;2022-11-20T16:33:39;5.70;80.60
65179;DHT22;51849;47.476;8.084;2022-11-20T16:36:06;5.70;80.80
65179;DHT22;51849;47.476;8.084;2022-11-20T16:38:35;5.70;80.80
65179;DHT22;51849;47.476;8.084;2022-11-20T16:41:01;5.70;80.80
65179;DHT22;51849;47.476;8.084;2022-11-20T16:43:28;5.70;81.00
65179;DHT22;51849;47.476;8.084;2022-11-20T16:45:55;5.60;81.00
65179;DHT22;51849;47.476;8.084;2022-11-20T16:48:21;5.60;81.50
65179;DHT22;51849;47.476;8.084;2022-11-20T16:50:48;5.50;81.70
65179;DHT22;51849;47.476;8.084;2022-11-20T16:53:18;5.60;81.80
65179;DHT22;51849;47.476;8.084;2022-11-20T16:55:45;5.60;81.70
65179;DHT22;51849;47.476;8.084;2022-11-20T16:58:11;5.60;81.60
65179;DHT22;51849;47.476;8.084;2022-11-20T17:00:41;5.70;81.60
65179;DHT22;51849;47.476;8.084;2022-11-20T17:03:09;5.60;81.60
65179;DHT22;51849;47.476;8.084;2022-11-20T17:05:36;5.60;81.90
65179;DHT22;51849;47.476;8.084;2022-11-20T17:08:04;5.50;82.20
65179;DHT22;51849;47.476;8.084;2022-11-20T17:10:29;5.40;82.40
65179;DHT22;51849;47.476;8.084;2022-11-20T17:12:55;5.40;82.50
65179;DHT22;51849;47.476;8.084;2022-11-20T17:15:21;5.40;82.70
65179;DHT22;51849;47.476;8.084;2022-11-20T17:17:49;5.50;82.40
65179;DHT22;51849;47.476;8.084;2022-11-20T17:20:14;5.40;82.30
65179;DHT22;51849;47.476;8.084;2022-11-20T17:22:40;5.40;82.50
65179;DHT22;51849;47.476;8.084;2022-11-20T17:25:05;5.30;82.50
65179;DHT22;51849;47.476;8.084;2022-11-20T17:27:34;5.40;82.40
65179;DHT22;51849;47.476;8.084;2022-11-20T17:30:02;5.40;82.20
65179;DHT22;51849;47.476;8.084;2022-11-20T17:32:28;5.40;82.20
65179;DHT22;51849;47.476;8.084;2022-11-20T17:34:56;5.40;82.40
65179;DHT22;51849;47.476;8.084;2022-11-20T17:37:23;5.40;82.50
65179;DHT22;51849;47.476;8.084;2022-11-20T17:39:48;5.50;82.60
65179;DHT22;51849;47.476;8.084;2022-11-20T17:42:14;5.40;82.50
65179;DHT22;51849;47.476;8.084;2022-11-20T17:44:52;5.20;83.00
65179;DHT22;51849;47.476;8.084;2022-11-20T17:47:17;5.20;83.30
65179;DHT22;51849;47.476;8.084;2022-11-20T17:49:48;5.10;83.40
65179;DHT22;51849;47.476;8.084;2022-11-20T17:52:16;5.00;83.70
65179;DHT22;51849;47.476;8.084;2022-11-20T17:54:46;5.00;84.20
65179;DHT22;51849;47.476;8.084;2022-11-20T17:57:12;5.00;84.40